Terminal Aerodrome Forecast
Issued by NWS

Home | Current Version | Previous Version | Text Only | Print | Product List | Glossary Off
Versions: 1 2 3 4 5 6 7 8 9 10 11 12 13 14 15 16 17 18 19 20 21 22 23 24

916
FTUS43 KLOT 230248 AAA
TAFMDW
TAF AMD
KMDW 230248Z 2303/2406 05007KT P6SM BKN250
     FM231600 04012KT P6SM BKN120 OVC200
     FM240200 05006KT P6SM OVC050=

USA.gov is the U.S. government's official web portal to all federal, state and local government web resources and services.